createdAt,value
2018-02-20T00:00:18.933Z,0.19
2018-02-20T00:01:23.872Z,0.16
2018-02-20T00:02:28.225Z,0.08
2018-02-20T00:03:32.748Z,0.00
2018-02-20T00:04:37.689Z,-0.08
2018-02-20T00:05:42.026Z,-0.16
2018-02-20T00:06:46.728Z,-0.25
2018-02-20T00:07:51.031Z,-0.27
2018-02-20T00:08:55.197Z,-0.28
2018-02-20T00:09:59.779Z,-0.19
2018-02-20T00:11:03.983Z,0.01
2018-02-20T00:12:08.202Z,0.22
2018-02-20T00:13:12.353Z,0.41
2018-02-20T00:14:16.537Z,0.57
2018-02-20T00:15:20.934Z,0.69
2018-02-20T00:16:26.488Z,0.72
2018-02-20T00:17:31.220Z,0.62
2018-02-20T00:18:36.189Z,0.45
2018-02-20T00:19:40.324Z,0.23
2018-02-20T00:20:45.503Z,0.15
2018-02-20T00:21:49.656Z,0.07
2018-02-20T00:22:53.866Z,0.05
2018-02-20T00:23:58.009Z,0.05
2018-02-20T00:25:02.168Z,0.06
2018-02-20T00:26:06.430Z,0.12
2018-02-20T00:27:10.546Z,-0.04
2018-02-20T00:28:14.744Z,-0.17
2018-02-20T00:29:19.168Z,-0.23
2018-02-20T00:30:24.412Z,-0.26
2018-02-20T00:31:28.989Z,-0.26
2018-02-20T00:32:33.209Z,-0.26
2018-02-20T00:33:37.452Z,-0.31
2018-02-20T00:34:42.123Z,-0.33
2018-02-20T00:35:48.335Z,-0.27
2018-02-20T00:36:52.543Z,-0.23
2018-02-20T00:37:56.720Z,-0.26
2018-02-20T00:39:00.901Z,-0.28
2018-02-20T00:40:05.096Z,-0.29
2018-02-20T00:41:09.311Z,-0.37
2018-02-20T00:42:13.761Z,-0.40
2018-02-20T00:43:18.008Z,-0.40
2018-02-20T00:44:22.886Z,-0.48
2018-02-20T00:45:28.515Z,-0.59
2018-02-20T00:46:32.639Z,-0.65
2018-02-20T00:47:37.445Z,-0.61
2018-02-20T00:48:43.515Z,-0.52
2018-02-20T00:49:47.657Z,-0.35
2018-02-20T00:50:51.862Z,-0.29
2018-02-20T00:51:55.994Z,-0.35
2018-02-20T00:53:00.255Z,-0.39
2018-02-20T00:54:04.715Z,-0.42
2018-02-20T00:55:08.923Z,-0.27
2018-02-20T00:56:13.115Z,-0.18
2018-02-20T00:57:17.253Z,-0.19
2018-02-20T00:58:21.781Z,-0.22
2018-02-20T00:59:27.407Z,-0.28
2018-02-20T01:00:32.230Z,-0.35
2018-02-20T01:01:37.054Z,-0.40
2018-02-20T01:02:41.222Z,-0.32
2018-02-20T01:03:46.215Z,-0.31
2018-02-20T01:04:50.497Z,-0.20
2018-02-20T01:05:54.622Z,0.01
2018-02-20T01:06:59.247Z,0.23
2018-02-20T01:08:03.536Z,0.25
2018-02-20T01:09:07.688Z,0.25
2018-02-20T01:10:12.409Z,0.27
2018-02-20T01:11:16.932Z,0.23
2018-02-20T01:12:21.567Z,0.31
2018-02-20T01:13:25.963Z,0.36
2018-02-20T01:14:30.196Z,0.32
2018-02-20T01:15:35.727Z,0.37
2018-02-20T01:16:40.787Z,0.15
2018-02-20T01:17:45.603Z,-0.09
2018-02-20T01:18:49.864Z,-0.21
2018-02-20T01:19:54.762Z,-0.40
2018-02-20T01:21:00.079Z,-0.54
2018-02-20T01:22:04.642Z,-0.67
2018-02-20T01:23:09.154Z,-0.77
2018-02-20T01:24:13.415Z,-0.82
2018-02-20T01:25:17.547Z,-0.81
2018-02-20T01:26:22.244Z,-0.70
2018-02-20T01:27:26.728Z,-0.62
2018-02-20T01:28:30.934Z,-0.63
2018-02-20T01:29:35.710Z,-0.61
2018-02-20T01:30:40.891Z,-0.61
2018-02-20T01:31:45.969Z,-0.70
2018-02-20T01:32:50.626Z,-0.76
2018-02-20T01:33:54.899Z,-0.81
2018-02-20T01:34:58.992Z,-0.85
2018-02-20T01:36:03.903Z,-0.88
2018-02-20T01:37:08.043Z,-0.93
2018-02-20T01:38:12.300Z,-1.01
2018-02-20T01:39:16.727Z,-0.99
2018-02-20T01:40:21.046Z,-0.96
2018-02-20T01:41:26.377Z,-0.96
2018-02-20T01:42:30.775Z,-0.96
2018-02-20T01:43:36.504Z,-0.91
2018-02-20T01:44:41.061Z,-0.90
2018-02-20T01:45:46.447Z,-0.95
2018-02-20T01:46:50.853Z,-0.90
2018-02-20T01:47:55.089Z,-0.87
2018-02-20T01:48:59.228Z,-0.89
2018-02-20T01:50:03.404Z,-0.90
2018-02-20T01:51:10.118Z,-0.93
2018-02-20T01:52:14.981Z,-0.98
2018-02-20T01:53:19.489Z,-1.02
2018-02-20T01:54:23.885Z,-1.04
2018-02-20T01:55:29.066Z,-1.03
2018-02-20T01:56:34.734Z,-1.05
2018-02-20T01:57:39.352Z,-1.08
2018-02-20T01:58:43.903Z,-1.02
2018-02-20T01:59:48.274Z,-0.90
2018-02-20T02:00:52.851Z,-0.77
2018-02-20T02:01:57.340Z,-0.74
2018-02-20T02:03:01.806Z,-0.70
2018-02-20T02:04:06.649Z,-0.59
2018-02-20T02:05:11.234Z,-0.54
2018-02-20T02:06:16.471Z,-0.52
2018-02-20T02:07:20.620Z,-0.46
2018-02-20T02:08:25.167Z,-0.43
2018-02-20T02:09:29.816Z,-0.46
2018-02-20T02:10:35.695Z,-0.50
2018-02-20T02:11:40.158Z,-0.57
2018-02-20T02:12:44.283Z,-0.57
2018-02-20T02:13:48.895Z,-0.47
2018-02-20T02:14:53.363Z,-0.26
2018-02-20T02:15:57.596Z,-0.08
2018-02-20T02:17:02.223Z,0.10
2018-02-20T02:18:06.424Z,0.27
2018-02-20T02:19:10.915Z,0.32
2018-02-20T02:20:15.007Z,0.31
2018-02-20T02:21:19.149Z,0.17
2018-02-20T02:22:23.857Z,0.12
2018-02-20T02:23:28.749Z,0.16
2018-02-20T02:24:33.656Z,0.15
2018-02-20T02:25:37.871Z,0.06
2018-02-20T02:26:42.858Z,-0.10
2018-02-20T02:27:47.550Z,-0.17
2018-02-20T02:28:52.459Z,-0.25
2018-02-20T02:29:57.190Z,-0.34
2018-02-20T02:31:01.782Z,-0.42
2018-02-20T02:32:06.540Z,-0.48
2018-02-20T02:33:10.649Z,-0.54
2018-02-20T02:34:15.014Z,-0.52
2018-02-20T02:35:19.754Z,-0.54
2018-02-20T02:36:25.420Z,-0.46
2018-02-20T02:37:29.664Z,-0.38
2018-02-20T02:38:35.056Z,-0.39
2018-02-20T02:39:39.494Z,-0.42
2018-02-20T02:40:43.996Z,-0.40
2018-02-20T02:41:48.946Z,-0.37
2018-02-20T02:42:53.590Z,-0.34
2018-02-20T02:43:57.995Z,-0.26
2018-02-20T02:45:04.869Z,-0.12
2018-02-20T02:46:09.270Z,-0.01
2018-02-20T02:47:13.763Z,0.03
2018-02-20T02:48:18.709Z,0.07
2018-02-20T02:49:23.315Z,0.13
2018-02-20T02:50:27.499Z,0.04
2018-02-20T02:51:31.989Z,-0.06
2018-02-20T02:52:36.867Z,-0.08
2018-02-20T02:53:40.984Z,-0.10
2018-02-20T02:54:47.101Z,-0.16
2018-02-20T02:55:51.577Z,-0.22
2018-02-20T02:56:55.930Z,-0.23
2018-02-20T02:58:00.048Z,-0.21
2018-02-20T02:59:04.416Z,-0.23
2018-02-20T03:00:09.339Z,-0.30
2018-02-20T03:01:13.991Z,-0.31
2018-02-20T03:02:18.112Z,-0.33
2018-02-20T03:03:23.465Z,-0.37
2018-02-20T03:04:28.075Z,-0.48
2018-02-20T03:05:32.595Z,-0.49
2018-02-20T03:06:37.536Z,-0.41
2018-02-20T03:07:41.667Z,-0.31
2018-02-20T03:08:46.671Z,-0.16
2018-02-20T03:09:50.791Z,-0.07
2018-02-20T03:10:54.993Z,-0.05
2018-02-20T03:11:59.543Z,0.00
2018-02-20T03:13:03.671Z,0.01
2018-02-20T03:14:07.783Z,-0.01
2018-02-20T03:15:14.276Z,0.01
2018-02-20T03:16:18.403Z,0.06
2018-02-20T03:17:22.883Z,0.20
2018-02-20T03:18:27.291Z,0.21
2018-02-20T03:19:31.390Z,0.23
2018-02-20T03:20:36.509Z,0.23
2018-02-20T03:21:40.609Z,0.21
2018-02-20T03:22:45.799Z,0.14
2018-02-20T03:23:49.890Z,0.17
2018-02-20T03:24:54.000Z,0.15
2018-02-20T03:25:58.121Z,0.21
2018-02-20T03:27:02.466Z,0.25
2018-02-20T03:28:06.660Z,0.32
2018-02-20T03:29:10.774Z,0.37
2018-02-20T03:30:16.825Z,0.34
2018-02-20T03:31:22.198Z,0.33
2018-02-20T03:32:26.921Z,0.35
2018-02-20T03:33:31.367Z,0.35
2018-02-20T03:34:35.478Z,0.36
2018-02-20T03:35:39.902Z,0.35
2018-02-20T03:36:44.882Z,0.54
2018-02-20T03:37:49.309Z,0.59
2018-02-20T03:38:53.576Z,0.46
2018-02-20T03:39:57.924Z,0.40
2018-02-20T03:41:02.414Z,0.33
2018-02-20T03:42:07.279Z,0.28
2018-02-20T03:43:12.007Z,0.26
2018-02-20T03:44:17.933Z,0.15
2018-02-20T03:45:22.620Z,0.09
2018-02-20T03:46:27.710Z,0.09
2018-02-20T03:47:32.267Z,0.03
2018-02-20T03:48:36.342Z,0.00
2018-02-20T03:49:40.690Z,-0.02
2018-02-20T03:50:45.802Z,-0.03
2018-02-20T03:51:50.155Z,-0.03
2018-02-20T03:52:54.289Z,0.01
2018-02-20T03:53:58.543Z,-0.02
2018-02-20T03:55:03.046Z,-0.01
2018-02-20T03:56:07.272Z,0.07
2018-02-20T03:57:11.919Z,0.09
2018-02-20T03:58:16.301Z,0.17
2018-02-20T03:59:21.870Z,0.25
2018-02-20T04:00:26.955Z,0.25
2018-02-20T04:01:31.059Z,0.29
2018-02-20T04:02:35.804Z,0.36
2018-02-20T04:03:41.790Z,0.38
2018-02-20T04:04:47.225Z,0.34
2018-02-20T04:05:51.940Z,0.30
2018-02-20T04:06:56.459Z,0.28
2018-02-20T04:08:00.630Z,0.32
2018-02-20T04:09:05.866Z,0.23
2018-02-20T04:10:10.096Z,0.17
2018-02-20T04:11:14.342Z,0.06
2018-02-20T04:12:18.826Z,-0.01
2018-02-20T04:13:23.602Z,-0.05
2018-02-20T04:14:28.227Z,-0.08
2018-02-20T04:15:33.891Z,0.01
2018-02-20T04:16:38.339Z,0.06
2018-02-20T04:17:43.073Z,0.09
2018-02-20T04:18:47.283Z,0.12
2018-02-20T04:19:51.410Z,0.15
2018-02-20T04:20:55.504Z,0.17
2018-02-20T04:21:59.606Z,0.21
2018-02-20T04:23:04.024Z,0.29
2018-02-20T04:24:08.185Z,0.49
2018-02-20T04:25:12.305Z,0.69
2018-02-20T04:26:16.411Z,0.73
2018-02-20T04:27:20.548Z,0.91
2018-02-20T04:28:26.206Z,0.97
2018-02-20T04:29:30.767Z,0.99
2018-02-20T04:30:35.800Z,0.92
2018-02-20T04:31:39.970Z,0.83
2018-02-20T04:32:44.059Z,0.78
2018-02-20T04:33:48.196Z,0.67
2018-02-20T04:34:52.315Z,0.51
2018-02-20T04:35:56.512Z,0.41
2018-02-20T04:37:00.599Z,0.33
2018-02-20T04:38:04.832Z,0.33
2018-02-20T04:39:08.952Z,0.32
2018-02-20T04:40:13.074Z,0.36
2018-02-20T04:41:17.263Z,0.37
2018-02-20T04:42:21.696Z,0.34
2018-02-20T04:43:26.170Z,0.33
2018-02-20T04:44:30.419Z,0.34
2018-02-20T04:45:36.608Z,0.32
2018-02-20T04:46:40.727Z,0.34
2018-02-20T04:47:45.811Z,0.38
2018-02-20T04:48:51.258Z,0.45
2018-02-20T04:49:55.491Z,0.49
2018-02-20T04:50:59.582Z,0.61
2018-02-20T04:52:03.708Z,0.63
2018-02-20T04:53:07.819Z,0.61
2018-02-20T04:54:11.996Z,0.68
2018-02-20T04:55:16.399Z,0.76
2018-02-20T04:56:20.515Z,0.90
2018-02-20T04:57:24.887Z,0.92
2018-02-20T04:58:29.153Z,0.89
2018-02-20T04:59:33.318Z,0.81
2018-02-20T05:00:38.807Z,0.74
2018-02-20T05:01:43.059Z,0.75
2018-02-20T05:02:48.203Z,0.77
2018-02-20T05:03:52.303Z,0.82
2018-02-20T05:04:56.496Z,0.90
2018-02-20T05:06:00.583Z,0.93
2018-02-20T05:07:05.083Z,0.92
2018-02-20T05:08:09.183Z,0.95
2018-02-20T05:09:13.397Z,0.94
2018-02-20T05:10:17.538Z,0.97
2018-02-20T05:11:21.643Z,0.99
2018-02-20T05:12:26.027Z,0.98
2018-02-20T05:13:30.439Z,0.92
2018-02-20T05:14:34.753Z,0.86
2018-02-20T05:15:39.691Z,0.81
2018-02-20T05:16:44.175Z,0.75
2018-02-20T05:17:49.399Z,0.69
2018-02-20T05:18:53.487Z,0.59
2018-02-20T05:19:57.925Z,0.52
2018-02-20T05:21:02.146Z,0.60
2018-02-20T05:22:06.292Z,0.67
2018-02-20T05:23:10.411Z,0.73
2018-02-20T05:24:14.511Z,0.78
2018-02-20T05:25:18.618Z,0.88
2018-02-20T05:26:22.843Z,1.05
2018-02-20T05:27:28.036Z,1.11
2018-02-20T05:28:32.245Z,1.13
2018-02-20T05:29:36.354Z,1.14
2018-02-20T05:30:40.598Z,0.95
2018-02-20T05:31:44.791Z,0.86
2018-02-20T05:32:49.860Z,0.70
2018-02-20T05:33:53.962Z,0.61
2018-02-20T05:34:58.151Z,0.59
2018-02-20T05:36:02.252Z,0.60
2018-02-20T05:37:06.508Z,0.58
2018-02-20T05:38:10.611Z,0.48
2018-02-20T05:39:15.184Z,0.38
2018-02-20T05:40:19.299Z,0.26
2018-02-20T05:41:23.419Z,0.21
2018-02-20T05:42:27.553Z,0.27
2018-02-20T05:43:31.767Z,0.20
2018-02-20T05:44:35.998Z,0.24
2018-02-20T05:45:41.451Z,0.26
2018-02-20T05:46:45.745Z,0.23
2018-02-20T05:47:49.849Z,0.22
2018-02-20T05:48:54.187Z,0.26
2018-02-20T05:49:58.443Z,0.35
2018-02-20T05:51:02.857Z,0.60
2018-02-20T05:52:07.156Z,0.73
2018-02-20T05:53:11.332Z,0.88
2018-02-20T05:54:21.927Z,0.90
2018-02-20T05:55:26.469Z,0.89
2018-02-20T05:56:30.712Z,0.74
2018-02-20T05:57:35.173Z,0.68
2018-02-20T05:58:39.323Z,0.56
2018-02-20T05:59:43.554Z,0.47
2018-02-20T06:00:47.899Z,0.32
2018-02-20T06:01:52.092Z,0.17
2018-02-20T06:02:56.716Z,0.13
2018-02-20T06:04:01.153Z,0.18
2018-02-20T06:05:05.428Z,0.12
2018-02-20T06:06:09.527Z,0.00
2018-02-20T06:07:14.709Z,-0.04
2018-02-20T06:08:18.835Z,-0.09
2018-02-20T06:09:23.017Z,-0.15
2018-02-20T06:10:27.463Z,-0.21
2018-02-20T06:11:31.659Z,-0.24
2018-02-20T06:12:35.819Z,-0.28
2018-02-20T06:13:39.955Z,-0.21
2018-02-20T06:14:44.204Z,-0.17
2018-02-20T06:15:48.508Z,-0.19
2018-02-20T06:16:52.620Z,-0.21
2018-02-20T06:17:57.612Z,-0.22
2018-02-20T06:19:01.766Z,-0.28
2018-02-20T06:20:06.455Z,-0.32
2018-02-20T06:21:10.655Z,-0.34
2018-02-20T06:22:14.771Z,-0.37
2018-02-20T06:23:18.950Z,-0.40
2018-02-20T06:24:23.062Z,-0.47
2018-02-20T06:25:27.176Z,-0.51
2018-02-20T06:26:31.758Z,-0.50
2018-02-20T06:27:35.887Z,-0.48
2018-02-20T06:28:40.011Z,-0.48
2018-02-20T06:29:45.168Z,-0.50
2018-02-20T06:30:49.525Z,-0.51
2018-02-20T06:31:53.894Z,-0.49
2018-02-20T06:32:58.306Z,-0.50
2018-02-20T06:34:02.421Z,-0.51
2018-02-20T06:35:06.606Z,-0.47
2018-02-20T06:36:10.739Z,-0.43
2018-02-20T06:37:14.872Z,-0.40
2018-02-20T06:38:19.103Z,-0.20
2018-02-20T06:39:23.546Z,-0.19
2018-02-20T06:40:27.756Z,0.00
2018-02-20T06:41:31.959Z,-0.01
2018-02-20T06:42:36.111Z,0.05
2018-02-20T06:43:40.281Z,0.24
2018-02-20T06:44:45.015Z,0.17
2018-02-20T06:45:50.382Z,-0.05
2018-02-20T06:46:54.692Z,-0.27
2018-02-20T06:47:58.783Z,-0.32
2018-02-20T06:49:03.056Z,-0.32
2018-02-20T06:50:07.191Z,-0.33
2018-02-20T06:51:11.411Z,-0.37
2018-02-20T06:52:15.546Z,-0.48
2018-02-20T06:53:19.667Z,-0.58
2018-02-20T06:54:23.859Z,-0.62
2018-02-20T06:55:28.059Z,-0.59
2018-02-20T06:56:32.276Z,-0.53
2018-02-20T06:57:36.551Z,-0.36
2018-02-20T06:58:41.017Z,-0.29
2018-02-20T06:59:45.261Z,-0.22
2018-02-20T07:00:49.688Z,-0.16
2018-02-20T07:01:54.503Z,-0.03
2018-02-20T07:02:58.646Z,0.09
2018-02-20T07:04:03.507Z,0.08
2018-02-20T07:05:07.927Z,0.02
2018-02-20T07:06:12.030Z,0.01
2018-02-20T07:07:16.151Z,-0.02
2018-02-20T07:08:20.343Z,0.02
2018-02-20T07:09:24.555Z,0.03
2018-02-20T07:10:28.719Z,0.06
2018-02-20T07:11:33.151Z,0.23
2018-02-20T07:12:37.308Z,0.31
2018-02-20T07:13:41.531Z,0.45
2018-02-20T07:14:48.019Z,0.56
2018-02-20T07:15:52.280Z,0.94
2018-02-20T07:16:56.372Z,1.20
2018-02-20T07:18:01.137Z,1.38
2018-02-20T07:19:05.446Z,1.54
2018-02-20T07:20:09.848Z,1.55
2018-02-20T07:21:14.023Z,1.63
2018-02-20T07:22:18.139Z,1.73
2018-02-20T07:23:22.329Z,1.77
2018-02-20T07:24:26.779Z,1.87
2018-02-20T07:25:31.060Z,2.04
2018-02-20T07:26:37.183Z,1.86
2018-02-20T07:27:41.298Z,1.65
2018-02-20T07:28:45.427Z,1.52
2018-02-20T07:29:50.475Z,1.53
2018-02-20T07:30:55.287Z,1.52
2018-02-20T07:31:59.417Z,1.47
2018-02-20T07:33:03.551Z,1.41
2018-02-20T07:34:08.910Z,1.42
2018-02-20T07:35:13.237Z,1.39
2018-02-20T07:36:17.379Z,1.38
2018-02-20T07:37:21.495Z,1.43
2018-02-20T07:38:25.697Z,1.51
2018-02-20T07:39:29.899Z,1.50
2018-02-20T07:40:34.175Z,1.51
2018-02-20T07:41:39.211Z,1.57
2018-02-20T07:42:43.371Z,1.60
2018-02-20T07:43:48.968Z,1.69
2018-02-20T07:44:53.097Z,1.74
2018-02-20T07:45:57.371Z,1.97
2018-02-20T07:47:01.995Z,1.98
2018-02-20T07:48:06.313Z,2.03
2018-02-20T07:49:10.523Z,2.10
2018-02-20T07:50:14.972Z,2.10
2018-02-20T07:51:19.168Z,2.06
2018-02-20T07:52:23.407Z,2.06
2018-02-20T07:53:27.539Z,2.19
2018-02-20T07:54:31.795Z,2.35
2018-02-20T07:55:37.138Z,2.54
2018-02-20T07:56:41.640Z,2.67
2018-02-20T07:57:45.898Z,2.67
2018-02-20T07:58:50.027Z,2.78
2018-02-20T07:59:54.160Z,2.97
2018-02-20T08:00:59.430Z,3.20
2018-02-20T08:02:03.573Z,3.69
2018-02-20T08:03:07.689Z,4.27
2018-02-20T08:04:12.059Z,4.73
2018-02-20T08:05:16.199Z,4.79
2018-02-20T08:06:20.562Z,4.87
2018-02-20T08:07:24.746Z,4.91
2018-02-20T08:08:28.907Z,4.89
2018-02-20T08:09:33.589Z,4.92
2018-02-20T08:10:37.717Z,5.06
2018-02-20T08:11:41.854Z,5.20
2018-02-20T08:12:45.996Z,5.33
2018-02-20T08:13:50.660Z,5.29
2018-02-20T08:14:54.923Z,5.26
2018-02-20T08:15:59.802Z,5.47
2018-02-20T08:17:04.343Z,5.42
2018-02-20T08:18:08.627Z,5.78
2018-02-20T08:19:13.125Z,5.96
2018-02-20T08:20:17.223Z,5.84
2018-02-20T08:21:21.408Z,5.83
2018-02-20T08:22:25.828Z,5.86
2018-02-20T08:23:29.996Z,5.91
2018-02-20T08:24:34.171Z,5.98
2018-02-20T08:25:38.499Z,5.96
2018-02-20T08:26:42.668Z,6.27
2018-02-20T08:27:47.785Z,6.54
2018-02-20T08:28:52.245Z,6.67
2018-02-20T08:29:56.352Z,7.30
2018-02-20T08:31:00.649Z,7.34
2018-02-20T08:32:04.989Z,7.11
2018-02-20T08:33:09.367Z,7.41
2018-02-20T08:34:13.536Z,7.50
2018-02-20T08:35:18.061Z,7.39
2018-02-20T08:36:22.252Z,7.27
2018-02-20T08:37:26.470Z,7.13
2018-02-20T08:38:30.692Z,6.97
2018-02-20T08:39:34.888Z,7.50
2018-02-20T08:40:39.098Z,7.60
2018-02-20T08:41:43.641Z,7.91
2018-02-20T08:42:47.807Z,7.55
2018-02-20T08:43:52.576Z,7.55
2018-02-20T08:44:56.835Z,7.49
2018-02-20T08:46:01.117Z,7.79
2018-02-20T08:47:05.655Z,7.94
2018-02-20T08:48:09.904Z,8.10
2018-02-20T08:49:14.031Z,7.95
2018-02-20T08:50:18.152Z,7.52
2018-02-20T08:51:22.427Z,7.08
2018-02-20T08:52:26.639Z,7.51
2018-02-20T08:53:30.840Z,7.98
2018-02-20T08:54:35.271Z,8.09
2018-02-20T08:55:39.498Z,7.80
2018-02-20T08:56:43.920Z,7.59
2018-02-20T08:57:48.627Z,7.50
2018-02-20T08:58:52.780Z,7.46
2018-02-20T08:59:56.902Z,7.73
2018-02-20T09:01:01.978Z,7.81
2018-02-20T09:02:06.208Z,7.43
2018-02-20T09:03:10.366Z,7.32
2018-02-20T09:04:14.508Z,7.36
2018-02-20T09:05:18.655Z,7.44
2018-02-20T09:06:22.811Z,7.87
2018-02-20T09:07:27.298Z,8.46
2018-02-20T09:08:31.479Z,8.80
2018-02-20T09:09:35.906Z,8.82
2018-02-20T09:10:40.043Z,8.77
2018-02-20T09:11:44.522Z,8.56
2018-02-20T09:12:48.855Z,8.56
2018-02-20T09:13:53.018Z,8.70
2018-02-20T09:14:57.818Z,8.56
2018-02-20T09:16:02.368Z,8.80
2018-02-20T09:17:06.540Z,9.03
2018-02-20T09:18:10.760Z,8.93
2018-02-20T09:19:14.897Z,8.85
2018-02-20T09:20:19.015Z,8.83
2018-02-20T09:21:23.187Z,8.95
2018-02-20T09:22:27.396Z,9.06
2018-02-20T09:23:31.579Z,9.23
2018-02-20T09:24:35.732Z,9.31
2018-02-20T09:25:40.265Z,9.33
2018-02-20T09:26:44.748Z,9.28
2018-02-20T09:27:48.933Z,9.24
2018-02-20T09:28:53.155Z,9.47
2018-02-20T09:29:57.317Z,9.70
2018-02-20T09:31:01.486Z,9.54
2018-02-20T09:32:05.941Z,9.51
2018-02-20T09:33:10.258Z,9.52
2018-02-20T09:34:14.529Z,9.80
2018-02-20T09:35:18.664Z,10.14
2018-02-20T09:36:22.831Z,10.17
2018-02-20T09:37:27.079Z,10.09
2018-02-20T09:38:31.699Z,9.86
2018-02-20T09:39:35.818Z,9.67
2018-02-20T09:40:40.145Z,9.59
2018-02-20T09:41:44.671Z,9.51
2018-02-20T09:42:48.978Z,9.24
2018-02-20T09:43:53.446Z,9.34
2018-02-20T09:44:57.606Z,9.59
2018-02-20T09:46:02.258Z,9.76
2018-02-20T09:47:06.415Z,9.93
2018-02-20T09:48:10.556Z,9.96
2018-02-20T09:49:14.771Z,10.01
2018-02-20T09:50:19.242Z,10.01
2018-02-20T09:51:23.395Z,9.97
2018-02-20T09:52:27.514Z,10.02
2018-02-20T09:53:31.665Z,10.17
2018-02-20T09:54:35.915Z,10.22
2018-02-20T09:55:40.077Z,10.17
2018-02-20T09:56:44.556Z,10.12
2018-02-20T09:57:49.297Z,10.14
2018-02-20T09:58:53.663Z,10.35
2018-02-20T09:59:58.148Z,10.23
2018-02-20T10:01:03.223Z,10.07
2018-02-20T10:02:08.203Z,10.09
2018-02-20T10:03:13.747Z,10.17
2018-02-20T10:04:17.917Z,10.29
2018-02-20T10:05:22.091Z,10.37
2018-02-20T10:06:26.352Z,10.49
2018-02-20T10:07:30.521Z,10.45
2018-02-20T10:08:34.703Z,10.51
2018-02-20T10:09:38.940Z,10.41
2018-02-20T10:10:43.086Z,10.41
2018-02-20T10:11:47.507Z,10.55
2018-02-20T10:12:51.945Z,10.49
2018-02-20T10:13:56.783Z,10.46
2018-02-20T10:15:01.254Z,10.61
2018-02-20T10:16:06.411Z,10.76
2018-02-20T10:17:10.999Z,10.82
2018-02-20T10:18:15.156Z,10.70
2018-02-20T10:19:19.334Z,10.55
2018-02-20T10:20:23.528Z,10.32
2018-02-20T10:21:27.949Z,10.18
2018-02-20T10:22:32.123Z,10.05
2018-02-20T10:23:36.388Z,10.22
2018-02-20T10:24:40.612Z,10.40
2018-02-20T10:25:44.791Z,10.54
2018-02-20T10:26:49.239Z,10.91
2018-02-20T10:27:53.864Z,11.55
2018-02-20T10:28:58.123Z,12.08
2018-02-20T10:30:03.588Z,12.20
2018-02-20T10:31:07.788Z,12.30
2018-02-20T10:32:11.993Z,12.25
2018-02-20T10:33:16.268Z,12.00
2018-02-20T10:34:20.432Z,11.31
2018-02-20T10:35:24.567Z,11.35
2018-02-20T10:36:28.858Z,11.00
2018-02-20T10:37:32.989Z,10.81
2018-02-20T10:38:37.229Z,10.98
2018-02-20T10:39:41.455Z,11.27
2018-02-20T10:40:46.587Z,11.80
2018-02-20T10:41:51.024Z,11.95
2018-02-20T10:42:55.278Z,11.91
2018-02-20T10:43:59.537Z,12.03
2018-02-20T10:45:06.381Z,12.18
2018-02-20T10:46:10.569Z,12.20
2018-02-20T10:47:14.687Z,11.86
2018-02-20T10:48:18.879Z,11.53
2018-02-20T10:49:23.139Z,11.41
2018-02-20T10:50:27.307Z,11.43
2018-02-20T10:51:31.468Z,11.49
2018-02-20T10:52:35.935Z,11.63
2018-02-20T10:53:40.168Z,11.83
2018-02-20T10:54:44.339Z,11.63
2018-02-20T10:55:48.855Z,11.50
2018-02-20T10:56:53.158Z,11.57
2018-02-20T10:57:58.167Z,11.63
2018-02-20T10:59:03.008Z,11.40
2018-02-20T11:00:08.504Z,11.61
2018-02-20T11:01:12.659Z,11.84
2018-02-20T11:02:16.807Z,11.57
2018-02-20T11:03:21.062Z,11.29
2018-02-20T11:04:25.243Z,11.20
2018-02-20T11:05:29.523Z,10.75
2018-02-20T11:06:33.652Z,10.92
2018-02-20T11:07:37.879Z,10.99
2018-02-20T11:08:42.094Z,11.21
2018-02-20T11:09:46.453Z,11.52
2018-02-20T11:10:51.281Z,11.40
2018-02-20T11:11:55.494Z,11.67
2018-02-20T11:12:59.665Z,12.01
2018-02-20T11:14:04.268Z,12.58
2018-02-20T11:15:09.495Z,12.82
2018-02-20T11:16:13.800Z,12.47
2018-02-20T11:17:17.935Z,12.37
2018-02-20T11:18:22.082Z,12.70
2018-02-20T11:19:26.451Z,12.55
2018-02-20T11:20:30.622Z,12.68
2018-02-20T11:21:34.767Z,12.83
2018-02-20T11:22:39.226Z,12.88
2018-02-20T11:23:43.488Z,12.67
2018-02-20T11:24:47.871Z,12.53
2018-02-20T11:25:52.457Z,12.50
2018-02-20T11:26:56.616Z,12.19
2018-02-20T11:28:00.868Z,12.83
2018-02-20T11:29:06.141Z,12.80
2018-02-20T11:30:12.460Z,12.31
2018-02-20T11:31:16.953Z,12.44
2018-02-20T11:32:21.175Z,12.17
2018-02-20T11:33:25.589Z,12.20
2018-02-20T11:34:29.745Z,12.26
2018-02-20T11:35:34.003Z,12.09
2018-02-20T11:36:38.198Z,11.93
2018-02-20T11:37:42.398Z,11.26
2018-02-20T11:38:46.645Z,11.66
2018-02-20T11:39:50.791Z,11.96
2018-02-20T11:40:56.052Z,12.45
2018-02-20T11:42:00.447Z,13.09
2018-02-20T11:43:04.813Z,12.81
2018-02-20T11:44:09.003Z,12.52
2018-02-20T11:45:15.446Z,12.65
2018-02-20T11:46:20.415Z,13.37
2018-02-20T11:47:24.574Z,13.07
2018-02-20T11:48:28.760Z,13.30
2018-02-20T11:49:32.959Z,13.40
2018-02-20T11:50:37.084Z,13.49
2018-02-20T11:51:41.348Z,13.72
2018-02-20T11:52:45.901Z,14.31
2018-02-20T11:53:50.067Z,14.89
2018-02-20T11:54:54.329Z,15.00
2018-02-20T11:55:58.920Z,14.88
2018-02-20T11:57:03.552Z,14.60
2018-02-20T11:58:07.724Z,14.09
2018-02-20T11:59:13.181Z,13.55
2018-02-20T12:00:17.974Z,13.09
2018-02-20T12:01:22.171Z,12.48
2018-02-20T12:02:26.319Z,12.53
2018-02-20T12:03:30.480Z,12.68
2018-02-20T12:04:34.705Z,12.74
2018-02-20T12:05:38.900Z,13.10
2018-02-20T12:06:44.099Z,13.83
2018-02-20T12:07:48.268Z,14.18
2018-02-20T12:08:52.406Z,13.76
2018-02-20T12:09:57.178Z,13.07
2018-02-20T12:11:01.561Z,12.72
2018-02-20T12:12:06.084Z,12.98
2018-02-20T12:13:11.257Z,12.70
2018-02-20T12:14:16.188Z,12.01
2018-02-20T12:15:20.417Z,11.40
2018-02-20T12:16:24.843Z,10.78
2018-02-20T12:17:29.104Z,10.93
2018-02-20T12:18:33.563Z,11.41
2018-02-20T12:19:37.726Z,12.16
2018-02-20T12:20:41.898Z,12.92
2018-02-20T12:21:46.040Z,13.95
2018-02-20T12:22:50.284Z,14.21
2018-02-20T12:23:54.494Z,14.47
2018-02-20T12:24:59.335Z,13.26
2018-02-20T12:26:04.711Z,12.83
2018-02-20T12:27:08.910Z,12.89
2018-02-20T12:28:13.672Z,13.36
2018-02-20T12:29:17.830Z,13.77
2018-02-20T12:30:22.358Z,13.18
2018-02-20T12:31:27.084Z,13.23
2018-02-20T12:32:31.391Z,13.89
2018-02-20T12:33:35.576Z,13.37
2018-02-20T12:34:40.371Z,13.00
2018-02-20T12:35:44.784Z,12.77
2018-02-20T12:36:49.041Z,12.66
2018-02-20T12:37:53.578Z,11.83
2018-02-20T12:38:58.269Z,11.68
2018-02-20T12:40:02.827Z,11.37
2018-02-20T12:41:07.099Z,11.61
2018-02-20T12:42:12.154Z,11.60
2018-02-20T12:43:16.299Z,11.77
2018-02-20T12:44:20.780Z,12.01
2018-02-20T12:45:25.216Z,12.38
2018-02-20T12:46:30.231Z,12.91
2018-02-20T12:47:35.329Z,13.08
2018-02-20T12:48:39.493Z,13.74
2018-02-20T12:49:43.651Z,13.92
2018-02-20T12:50:47.803Z,14.43
2018-02-20T12:51:51.963Z,13.51
2018-02-20T12:52:56.699Z,13.17
2018-02-20T12:54:01.547Z,12.11
2018-02-20T12:55:05.743Z,12.45
2018-02-20T12:56:10.365Z,13.22
2018-02-20T12:57:15.120Z,13.40
2018-02-20T12:58:20.125Z,13.37
2018-02-20T12:59:24.329Z,12.95
2018-02-20T13:00:28.932Z,12.18
2018-02-20T13:01:33.074Z,11.60
2018-02-20T13:02:37.618Z,12.15
2018-02-20T13:03:41.849Z,13.02
2018-02-20T13:04:46.003Z,13.29
2018-02-20T13:05:50.136Z,13.56
2018-02-20T13:06:54.318Z,13.47
2018-02-20T13:07:59.095Z,13.57
2018-02-20T13:09:03.912Z,14.21
2018-02-20T13:10:08.072Z,13.79
2018-02-20T13:11:12.620Z,12.79
2018-02-20T13:12:16.893Z,12.47
2018-02-20T13:13:21.033Z,12.00
2018-02-20T13:14:25.327Z,12.16
2018-02-20T13:15:30.116Z,12.67
2018-02-20T13:16:34.695Z,13.36
2018-02-20T13:17:39.050Z,14.17
2018-02-20T13:18:43.408Z,14.99
2018-02-20T13:19:47.641Z,15.36
2018-02-20T13:20:51.840Z,15.90
2018-02-20T13:21:56.594Z,16.59
2018-02-20T13:23:01.079Z,17.29
2018-02-20T13:24:05.380Z,17.98
2018-02-20T13:25:09.645Z,17.69
2018-02-20T13:26:13.932Z,16.86
2018-02-20T13:27:19.086Z,15.16
2018-02-20T13:28:24.255Z,14.84
2018-02-20T13:29:28.560Z,14.84
2018-02-20T13:30:33.108Z,14.64
2018-02-20T13:31:37.529Z,14.72
2018-02-20T13:32:41.787Z,14.48
2018-02-20T13:33:46.231Z,14.40
2018-02-20T13:34:50.420Z,15.18
2018-02-20T13:35:54.693Z,14.95
2018-02-20T13:36:59.833Z,15.10
2018-02-20T13:38:04.420Z,13.68
2018-02-20T13:39:08.644Z,13.36
2018-02-20T13:40:13.159Z,13.18
2018-02-20T13:41:18.126Z,12.94
2018-02-20T13:42:22.244Z,12.87
2018-02-20T13:43:26.569Z,13.01
2018-02-20T13:44:30.768Z,13.35
2018-02-20T13:45:35.155Z,13.40
2018-02-20T13:46:39.606Z,12.81
2018-02-20T13:47:43.820Z,13.12
2018-02-20T13:48:47.993Z,13.53
2018-02-20T13:49:52.688Z,13.41
2018-02-20T13:50:57.282Z,12.34
2018-02-20T13:52:02.035Z,11.59
2018-02-20T13:53:06.743Z,11.95
2018-02-20T13:54:11.919Z,11.92
2018-02-20T13:55:16.231Z,11.84
2018-02-20T13:56:20.430Z,12.27
2018-02-20T13:57:24.621Z,12.86
2018-02-20T13:58:28.837Z,13.44
2018-02-20T13:59:33.340Z,13.67
2018-02-20T14:00:37.828Z,13.60
2018-02-20T14:01:41.976Z,13.80
2018-02-20T14:02:46.240Z,13.73